createdAt,value
2017-09-16T00:00:37.883Z,0.00
2017-09-16T00:01:37.869Z,0.00
2017-09-16T00:02:37.851Z,0.00
2017-09-16T00:03:37.839Z,0.00
2017-09-16T00:04:37.836Z,0.00
2017-09-16T00:05:38.032Z,0.00
2017-09-16T00:06:37.795Z,0.00
2017-09-16T00:07:37.790Z,0.00
2017-09-16T00:08:37.773Z,0.00
2017-09-16T00:09:37.765Z,0.00
2017-09-16T00:10:37.748Z,0.00
2017-09-16T00:11:38.086Z,0.00
2017-09-16T00:12:37.721Z,0.00
2017-09-16T00:13:37.706Z,0.00
2017-09-16T00:14:37.694Z,0.00
2017-09-16T00:15:37.689Z,0.00
2017-09-16T00:16:37.666Z,0.00
2017-09-16T00:17:38.014Z,0.00
2017-09-16T00:18:37.644Z,0.00
2017-09-16T00:19:37.631Z,0.00
2017-09-16T00:20:37.628Z,0.00
2017-09-16T00:21:37.606Z,0.00
2017-09-16T00:22:37.596Z,0.00
2017-09-16T00:23:37.961Z,0.00
2017-09-16T00:24:37.567Z,0.00
2017-09-16T00:25:37.557Z,0.00
2017-09-16T00:26:37.553Z,0.00
2017-09-16T00:27:37.524Z,0.00
2017-09-16T00:28:37.519Z,0.00
2017-09-16T00:29:37.889Z,0.00
2017-09-16T00:30:37.497Z,0.00
2017-09-16T00:31:37.483Z,0.00
2017-09-16T00:32:37.470Z,0.00
2017-09-16T00:33:37.447Z,0.00
2017-09-16T00:34:37.440Z,0.00
2017-09-16T00:35:37.809Z,0.00
2017-09-16T00:36:37.411Z,0.00
2017-09-16T00:37:37.399Z,0.00
2017-09-16T00:38:37.387Z,0.00
2017-09-16T00:39:37.370Z,0.00
2017-09-16T00:40:37.363Z,0.00
2017-09-16T00:41:37.706Z,0.00
2017-09-16T00:42:37.334Z,0.00
2017-09-16T00:43:37.316Z,0.00
2017-09-16T00:44:37.311Z,0.00
2017-09-16T00:45:37.293Z,0.00
2017-09-16T00:46:37.287Z,0.00
2017-09-16T00:47:37.575Z,0.00
2017-09-16T00:48:37.262Z,0.00
2017-09-16T00:49:37.242Z,0.00
2017-09-16T00:50:37.237Z,0.00
2017-09-16T00:51:37.220Z,0.00
2017-09-16T00:52:37.205Z,0.00
2017-09-16T00:53:37.493Z,0.00
2017-09-16T00:54:37.179Z,0.00
2017-09-16T00:55:37.174Z,0.00
2017-09-16T00:56:37.161Z,0.00
2017-09-16T00:57:37.140Z,0.00
2017-09-16T00:58:37.126Z,0.00
2017-09-16T00:59:37.135Z,0.00
2017-09-16T01:00:37.113Z,0.00
2017-09-16T01:01:37.090Z,0.00
2017-09-16T01:02:37.084Z,0.00
2017-09-16T01:03:37.098Z,0.00
2017-09-16T01:04:37.048Z,0.00
2017-09-16T01:05:37.033Z,0.00
2017-09-16T01:06:37.026Z,0.00
2017-09-16T01:07:37.010Z,0.00
2017-09-16T01:08:37.422Z,0.00
2017-09-16T01:09:36.987Z,0.00
2017-09-16T01:10:36.978Z,0.00
2017-09-16T01:11:36.958Z,0.00
2017-09-16T01:12:36.939Z,0.00
2017-09-16T01:13:36.943Z,0.00
2017-09-16T01:14:36.943Z,0.00
2017-09-16T01:15:36.906Z,0.00
2017-09-16T01:16:36.888Z,0.00
2017-09-16T01:17:36.879Z,0.00
2017-09-16T01:18:36.860Z,0.00
2017-09-16T01:19:37.668Z,0.00
2017-09-16T01:20:36.845Z,0.00
2017-09-16T01:21:36.826Z,0.00
2017-09-16T01:22:36.809Z,0.00
2017-09-16T01:23:36.802Z,0.00
2017-09-16T01:24:36.785Z,0.00
2017-09-16T01:25:37.074Z,0.00
2017-09-16T01:26:36.761Z,0.00
2017-09-16T01:27:36.747Z,0.00
2017-09-16T01:28:36.735Z,0.00
2017-09-16T01:29:36.721Z,0.00
2017-09-16T01:30:36.707Z,0.00
2017-09-16T01:31:36.721Z,0.00
2017-09-16T01:32:36.679Z,0.00
2017-09-16T01:33:36.666Z,0.00
2017-09-16T01:34:36.661Z,0.00
2017-09-16T01:35:36.634Z,0.00
2017-09-16T01:36:36.958Z,0.00
2017-09-16T01:37:36.618Z,0.00
2017-09-16T01:38:36.604Z,0.00
2017-09-16T01:39:36.585Z,0.00
2017-09-16T01:40:36.577Z,0.00
2017-09-16T01:41:36.566Z,0.00
2017-09-16T01:42:36.867Z,0.00
2017-09-16T01:43:36.537Z,0.00
2017-09-16T01:44:36.525Z,0.00
2017-09-16T01:45:36.509Z,0.00
2017-09-16T01:46:36.496Z,0.00
2017-09-16T01:47:36.477Z,0.00
2017-09-16T01:48:36.771Z,0.00
2017-09-16T01:49:36.451Z,0.00
2017-09-16T01:50:36.445Z,0.00
2017-09-16T01:51:36.429Z,0.00
2017-09-16T01:52:36.413Z,0.00
2017-09-16T01:53:36.398Z,0.00
2017-09-16T01:54:36.415Z,0.00
2017-09-16T01:55:36.383Z,0.00
2017-09-16T01:56:36.655Z,0.00
2017-09-16T01:57:36.348Z,0.00
2017-09-16T01:58:36.332Z,0.00
2017-09-16T01:59:36.321Z,0.00
2017-09-16T02:00:36.305Z,0.00
2017-09-16T02:01:36.296Z,0.00
2017-09-16T02:02:36.610Z,0.00
2017-09-16T02:03:36.271Z,0.00
2017-09-16T02:04:36.256Z,0.00
2017-09-16T02:05:36.247Z,0.00
2017-09-16T02:06:36.223Z,0.00
2017-09-16T02:07:36.215Z,0.00
2017-09-16T02:08:36.226Z,0.00
2017-09-16T02:09:36.189Z,0.00
2017-09-16T02:10:36.183Z,0.00
2017-09-16T02:11:36.553Z,0.00
2017-09-16T02:12:36.148Z,0.00
2017-09-16T02:13:36.137Z,0.00
2017-09-16T02:14:36.120Z,0.00
2017-09-16T02:15:36.116Z,0.00
2017-09-16T02:16:36.098Z,0.00
2017-09-16T02:17:36.114Z,0.00
2017-09-16T02:18:36.066Z,0.00
2017-09-16T02:19:36.050Z,0.00
2017-09-16T02:20:36.038Z,0.00
2017-09-16T02:21:36.466Z,0.00
2017-09-16T02:22:36.021Z,0.00
2017-09-16T02:23:36.003Z,0.00
2017-09-16T02:24:35.985Z,0.00
2017-09-16T02:25:35.987Z,0.00
2017-09-16T02:26:35.965Z,0.00
2017-09-16T02:27:36.250Z,0.00
2017-09-16T02:28:35.937Z,0.00
2017-09-16T02:29:35.919Z,0.00
2017-09-16T02:30:35.914Z,0.00
2017-09-16T02:31:35.900Z,0.00
2017-09-16T02:32:35.893Z,0.00
2017-09-16T02:33:35.905Z,0.00
2017-09-16T02:34:35.863Z,0.00
2017-09-16T02:35:35.850Z,0.00
2017-09-16T02:36:36.197Z,0.00
2017-09-16T02:37:35.825Z,0.00
2017-09-16T02:38:35.821Z,0.00
2017-09-16T02:39:35.791Z,0.00
2017-09-16T02:40:35.774Z,0.00
2017-09-16T02:41:35.769Z,0.00
2017-09-16T02:42:35.842Z,0.00
2017-09-16T02:43:35.742Z,0.00
2017-09-16T02:44:35.728Z,0.00
2017-09-16T02:45:35.724Z,0.00
2017-09-16T02:46:35.710Z,0.00
2017-09-16T02:47:35.729Z,0.00
2017-09-16T02:48:35.702Z,0.00
2017-09-16T02:49:35.661Z,0.00
2017-09-16T02:50:35.655Z,0.00
2017-09-16T02:51:35.646Z,0.00
2017-09-16T02:52:35.615Z,0.00
2017-09-16T02:53:35.844Z,0.00
2017-09-16T02:54:35.600Z,0.00
2017-09-16T02:55:35.588Z,0.00
2017-09-16T02:56:35.568Z,0.00
2017-09-16T02:57:35.556Z,0.00
2017-09-16T02:58:35.537Z,0.00
2017-09-16T02:59:35.952Z,0.00
2017-09-16T03:00:35.513Z,0.00
2017-09-16T03:01:35.505Z,0.00
2017-09-16T03:02:35.488Z,0.00
2017-09-16T03:03:35.483Z,0.00
2017-09-16T03:04:35.458Z,0.00
2017-09-16T03:05:35.660Z,0.00
2017-09-16T03:06:35.437Z,0.00
2017-09-16T03:07:35.438Z,0.00
2017-09-16T03:08:35.417Z,0.00
2017-09-16T03:09:35.399Z,0.00
2017-09-16T03:10:35.394Z,0.00
2017-09-16T03:11:35.712Z,0.00
2017-09-16T03:12:35.352Z,0.00
2017-09-16T03:13:35.343Z,0.00
2017-09-16T03:14:35.326Z,0.00
2017-09-16T03:15:35.323Z,0.00
2017-09-16T03:16:35.301Z,0.00
2017-09-16T03:17:35.495Z,0.00
2017-09-16T03:18:35.282Z,0.00
2017-09-16T03:19:35.258Z,0.00
2017-09-16T03:20:35.262Z,0.00
2017-09-16T03:21:35.238Z,0.00
2017-09-16T03:22:35.225Z,0.00
2017-09-16T03:23:35.501Z,0.00
2017-09-16T03:24:35.202Z,0.00
2017-09-16T03:25:35.179Z,0.00
2017-09-16T03:26:35.456Z,0.00
2017-09-16T03:27:35.155Z,0.00
2017-09-16T03:28:35.145Z,0.00
2017-09-16T03:29:35.551Z,0.00
2017-09-16T03:30:35.124Z,0.00
2017-09-16T03:31:35.109Z,0.00
2017-09-16T03:32:35.089Z,0.00
2017-09-16T03:33:35.075Z,0.00
2017-09-16T03:34:35.064Z,0.00
2017-09-16T03:35:35.075Z,0.00
2017-09-16T03:36:35.045Z,0.00
2017-09-16T03:37:35.020Z,0.00
2017-09-16T03:38:35.312Z,0.00
2017-09-16T03:39:34.993Z,0.00
2017-09-16T03:40:34.983Z,0.00
2017-09-16T03:41:34.967Z,0.00
2017-09-16T03:42:34.955Z,0.00
2017-09-16T03:43:34.937Z,0.00
2017-09-16T03:44:34.951Z,0.00
2017-09-16T03:45:34.915Z,0.00
2017-09-16T03:46:34.899Z,0.00
2017-09-16T03:47:34.884Z,0.00
2017-09-16T03:48:34.889Z,0.00
2017-09-16T03:49:34.883Z,0.00
2017-09-16T03:50:34.857Z,0.00
2017-09-16T03:51:34.831Z,0.00
2017-09-16T03:52:34.823Z,0.00
2017-09-16T03:53:34.804Z,0.00
2017-09-16T03:54:34.819Z,0.00
2017-09-16T03:55:34.784Z,0.00
2017-09-16T03:56:34.762Z,0.00
2017-09-16T03:57:34.751Z,0.00
2017-09-16T03:58:34.744Z,0.00
2017-09-16T03:59:35.138Z,0.00
2017-09-16T04:00:34.710Z,0.00
2017-09-16T04:01:34.696Z,0.00
2017-09-16T04:02:34.680Z,0.00
2017-09-16T04:03:34.674Z,0.00
2017-09-16T04:04:34.656Z,0.00
2017-09-16T04:05:34.871Z,0.00
2017-09-16T04:06:34.627Z,0.00
2017-09-16T04:07:34.613Z,0.00
2017-09-16T04:08:34.598Z,0.00
2017-09-16T04:09:34.587Z,0.00
2017-09-16T04:10:34.599Z,0.00
2017-09-16T04:11:34.555Z,0.00
2017-09-16T04:12:34.547Z,0.00
2017-09-16T04:13:34.527Z,0.00
2017-09-16T04:14:34.550Z,0.00
2017-09-16T04:15:34.501Z,0.00
2017-09-16T04:16:34.490Z,0.00
2017-09-16T04:17:34.473Z,0.00
2017-09-16T04:18:34.460Z,0.00
2017-09-16T04:19:34.878Z,0.00
2017-09-16T04:20:34.431Z,0.00
2017-09-16T04:21:34.435Z,0.00
2017-09-16T04:22:34.412Z,0.00
2017-09-16T04:23:34.391Z,0.00
2017-09-16T04:24:34.379Z,0.00
2017-09-16T04:25:34.402Z,0.00
2017-09-16T04:26:34.352Z,0.00
2017-09-16T04:27:34.338Z,0.00
2017-09-16T04:28:34.331Z,0.00
2017-09-16T04:29:34.519Z,0.00
2017-09-16T04:30:34.299Z,0.00
2017-09-16T04:31:34.290Z,0.00
2017-09-16T04:32:34.275Z,0.00
2017-09-16T04:33:34.261Z,0.00
2017-09-16T04:34:34.244Z,0.00
2017-09-16T04:35:34.537Z,0.00
2017-09-16T04:36:34.214Z,0.00
2017-09-16T04:37:34.208Z,0.00
2017-09-16T04:38:34.189Z,0.00
2017-09-16T04:39:34.179Z,0.00
2017-09-16T04:40:34.162Z,0.00
2017-09-16T04:41:34.176Z,0.00
2017-09-16T04:42:34.129Z,0.00
2017-09-16T04:43:34.123Z,0.00
2017-09-16T04:44:34.106Z,0.00
2017-09-16T04:45:34.093Z,0.00
2017-09-16T04:46:34.388Z,0.00
2017-09-16T04:47:34.062Z,0.00
2017-09-16T04:48:34.052Z,0.00
2017-09-16T04:49:34.040Z,0.00
2017-09-16T04:50:34.020Z,0.00
2017-09-16T04:51:34.015Z,0.00
2017-09-16T04:52:34.341Z,0.00
2017-09-16T04:53:33.992Z,0.00
2017-09-16T04:54:33.972Z,0.00
2017-09-16T04:55:33.956Z,0.00
2017-09-16T04:56:33.942Z,0.00
2017-09-16T04:57:33.928Z,0.00
2017-09-16T04:58:34.122Z,0.00
2017-09-16T04:59:33.906Z,0.00
2017-09-16T05:00:33.884Z,0.00
2017-09-16T05:01:33.878Z,0.00
2017-09-16T05:02:33.861Z,0.00
2017-09-16T05:03:33.844Z,0.00
2017-09-16T05:04:34.180Z,0.00
2017-09-16T05:05:33.817Z,0.00
2017-09-16T05:06:33.805Z,0.00
2017-09-16T05:07:33.788Z,0.00
2017-09-16T05:08:33.775Z,0.00
2017-09-16T05:09:33.766Z,0.00
2017-09-16T05:10:34.134Z,0.00
2017-09-16T05:11:33.735Z,0.00
2017-09-16T05:12:33.721Z,0.00
2017-09-16T05:13:33.726Z,0.00
2017-09-16T05:14:33.700Z,0.00
2017-09-16T05:15:33.675Z,0.00
2017-09-16T05:16:33.873Z,0.00
2017-09-16T05:17:33.656Z,0.00
2017-09-16T05:18:33.642Z,0.00
2017-09-16T05:19:33.628Z,5.63
2017-09-16T05:20:33.618Z,5.63
2017-09-16T05:21:33.624Z,5.63
2017-09-16T05:22:33.618Z,5.63
2017-09-16T05:23:33.577Z,5.63
2017-09-16T05:24:33.554Z,5.63
2017-09-16T05:25:33.950Z,5.63
2017-09-16T05:26:33.535Z,5.63
2017-09-16T05:27:33.511Z,5.63
2017-09-16T05:28:33.497Z,5.63
2017-09-16T05:29:33.489Z,5.63
2017-09-16T05:30:33.483Z,5.63
2017-09-16T05:31:33.493Z,5.63
2017-09-16T05:32:33.443Z,5.63
2017-09-16T05:33:33.433Z,5.63
2017-09-16T05:34:33.423Z,5.63
2017-09-16T05:35:33.402Z,5.63
2017-09-16T05:36:33.829Z,5.63
2017-09-16T05:37:33.382Z,5.63
2017-09-16T05:38:33.364Z,5.63
2017-09-16T05:39:33.349Z,5.63
2017-09-16T05:40:33.331Z,11.25
2017-09-16T05:41:33.838Z,11.25
2017-09-16T05:42:33.522Z,11.25
2017-09-16T05:43:33.293Z,11.25
2017-09-16T05:44:33.274Z,11.25
2017-09-16T05:45:33.271Z,11.25
2017-09-16T05:46:33.252Z,11.25
2017-09-16T05:47:33.238Z,11.25
2017-09-16T05:48:33.657Z,11.25
2017-09-16T05:49:33.208Z,11.25
2017-09-16T05:50:33.191Z,16.88
2017-09-16T05:51:33.186Z,16.88
2017-09-16T05:52:33.165Z,16.88
2017-09-16T05:53:33.154Z,16.88
2017-09-16T05:54:33.493Z,11.25
2017-09-16T05:55:33.125Z,16.88
2017-09-16T05:56:33.116Z,16.88
2017-09-16T05:57:33.099Z,16.88
2017-09-16T05:58:33.093Z,16.88
2017-09-16T05:59:33.068Z,16.88
2017-09-16T06:00:33.092Z,16.88
2017-09-16T06:01:33.048Z,16.88
2017-09-16T06:02:33.032Z,16.88
2017-09-16T06:03:33.377Z,22.50
2017-09-16T06:04:33.009Z,22.50
2017-09-16T06:05:32.988Z,22.50
2017-09-16T06:06:32.986Z,22.50
2017-09-16T06:07:32.957Z,22.50
2017-09-16T06:08:33.156Z,22.50
2017-09-16T06:09:32.932Z,22.50
2017-09-16T06:10:32.930Z,22.50
2017-09-16T06:11:32.904Z,28.13
2017-09-16T06:12:32.895Z,22.50
2017-09-16T06:13:32.879Z,22.50
2017-09-16T06:14:33.078Z,22.50
2017-09-16T06:15:32.856Z,22.50
2017-09-16T06:16:32.845Z,22.50
2017-09-16T06:17:32.822Z,22.50
2017-09-16T06:18:32.808Z,22.50
2017-09-16T06:19:32.795Z,22.50
2017-09-16T06:20:32.887Z,22.50
2017-09-16T06:21:32.772Z,22.50
2017-09-16T06:22:32.763Z,22.50
2017-09-16T06:23:32.759Z,22.50
2017-09-16T06:24:32.729Z,22.50
2017-09-16T06:25:32.723Z,28.13
2017-09-16T06:26:33.143Z,28.13
2017-09-16T06:27:32.690Z,22.50
2017-09-16T06:28:32.672Z,22.50
2017-09-16T06:29:32.664Z,22.50
2017-09-16T06:30:32.650Z,22.50
2017-09-16T06:31:32.636Z,22.50
2017-09-16T06:32:32.974Z,22.50
2017-09-16T06:33:32.611Z,22.50
2017-09-16T06:34:32.597Z,22.50
2017-09-16T06:35:32.587Z,28.13
2017-09-16T06:36:32.564Z,22.50
2017-09-16T06:37:32.548Z,22.50
2017-09-16T06:38:32.567Z,22.50
2017-09-16T06:39:32.524Z,28.13
2017-09-16T06:40:32.514Z,22.50
2017-09-16T06:41:32.498Z,22.50
2017-09-16T06:42:32.807Z,28.13
2017-09-16T06:43:32.467Z,28.13
2017-09-16T06:44:32.465Z,28.13
2017-09-16T06:45:32.442Z,28.13
2017-09-16T06:46:32.437Z,28.13
2017-09-16T06:47:32.421Z,33.75
2017-09-16T06:48:32.724Z,33.75
2017-09-16T06:49:32.391Z,33.75
2017-09-16T06:50:32.381Z,33.75
2017-09-16T06:51:32.359Z,33.75
2017-09-16T06:52:32.367Z,33.75
2017-09-16T06:53:32.332Z,33.75
2017-09-16T06:54:32.394Z,33.75
2017-09-16T06:55:32.306Z,33.75
2017-09-16T06:56:32.295Z,33.75
2017-09-16T06:57:32.291Z,33.75
2017-09-16T06:58:32.265Z,39.38
2017-09-16T06:59:32.279Z,33.75
2017-09-16T07:00:32.276Z,33.75
2017-09-16T07:01:32.229Z,33.75
2017-09-16T07:02:32.512Z,39.38
2017-09-16T07:03:32.201Z,33.75
2017-09-16T07:04:32.187Z,33.75
2017-09-16T07:05:32.179Z,33.75
2017-09-16T07:06:32.348Z,39.38
2017-09-16T07:07:32.144Z,39.38
2017-09-16T07:08:32.496Z,39.38
2017-09-16T07:09:32.124Z,39.38
2017-09-16T07:10:32.105Z,39.38
2017-09-16T07:11:32.099Z,39.38
2017-09-16T07:12:32.083Z,39.38
2017-09-16T07:13:32.068Z,33.75
2017-09-16T07:14:32.268Z,39.38
2017-09-16T07:15:32.054Z,39.38
2017-09-16T07:16:32.629Z,39.38
2017-09-16T07:17:32.740Z,39.38
2017-09-16T07:18:32.715Z,39.38
2017-09-16T07:19:31.989Z,45.00
2017-09-16T07:20:32.413Z,45.00
2017-09-16T07:21:31.963Z,39.38
2017-09-16T07:22:31.963Z,39.38
2017-09-16T07:23:31.941Z,45.00
2017-09-16T07:24:32.056Z,50.63
2017-09-16T07:25:31.910Z,61.88
2017-09-16T07:26:32.242Z,50.63
2017-09-16T07:27:31.886Z,50.63
2017-09-16T07:28:31.975Z,45.00
2017-09-16T07:29:31.857Z,50.63
2017-09-16T07:30:32.032Z,50.63
2017-09-16T07:31:31.958Z,50.63
2017-09-16T07:32:31.844Z,45.00
2017-09-16T07:33:31.811Z,45.00
2017-09-16T07:34:31.791Z,45.00
2017-09-16T07:35:32.082Z,45.00
2017-09-16T07:36:31.768Z,50.63
2017-09-16T07:37:31.753Z,45.00
2017-09-16T07:38:31.744Z,50.63
2017-09-16T07:39:31.728Z,50.63
2017-09-16T07:40:31.719Z,50.63
2017-09-16T07:41:32.050Z,56.25
2017-09-16T07:42:31.688Z,50.63
2017-09-16T07:43:31.675Z,50.63
2017-09-16T07:44:31.668Z,56.25
2017-09-16T07:45:31.646Z,50.63
2017-09-16T07:46:31.635Z,50.63
2017-09-16T07:47:31.654Z,50.63
2017-09-16T07:48:31.623Z,50.63
2017-09-16T07:49:31.605Z,50.63
2017-09-16T07:50:31.898Z,50.63
2017-09-16T07:51:31.576Z,50.63
2017-09-16T07:52:31.564Z,50.63
2017-09-16T07:53:31.548Z,50.63
2017-09-16T07:54:31.536Z,50.63
2017-09-16T07:55:31.530Z,50.63
2017-09-16T07:56:31.727Z,50.63
2017-09-16T07:57:31.493Z,50.63
2017-09-16T07:58:31.490Z,50.63
2017-09-16T07:59:31.470Z,50.63
2017-09-16T08:00:31.464Z,50.63
2017-09-16T08:01:31.443Z,45.00
2017-09-16T08:02:31.650Z,50.63
2017-09-16T08:03:31.423Z,50.63
2017-09-16T08:04:31.412Z,50.63
2017-09-16T08:05:31.397Z,50.63
2017-09-16T08:06:31.392Z,50.63
2017-09-16T08:07:31.364Z,50.63
2017-09-16T08:08:31.406Z,50.63
2017-09-16T08:09:31.342Z,50.63
2017-09-16T08:10:31.335Z,56.25
2017-09-16T08:11:31.539Z,50.63
2017-09-16T08:12:31.301Z,56.25
2017-09-16T08:13:31.503Z,56.25
2017-09-16T08:14:31.278Z,56.25
2017-09-16T08:15:31.267Z,56.25
2017-09-16T08:16:31.268Z,56.25
2017-09-16T08:17:31.242Z,56.25
2017-09-16T08:18:31.235Z,50.63
2017-09-16T08:19:31.591Z,45.00
2017-09-16T08:20:31.205Z,39.38
2017-09-16T08:21:31.349Z,39.38
2017-09-16T08:24:17.148Z,50.63
2017-09-16T08:25:17.516Z,50.63
2017-09-16T08:26:17.121Z,56.25
2017-09-16T08:27:17.318Z,56.25
2017-09-16T08:28:17.078Z,56.25
2017-09-16T08:29:18.219Z,56.25
2017-09-16T08:30:24.459Z,56.25
2017-09-16T08:31:18.166Z,56.25
2017-09-16T08:32:17.371Z,61.88
2017-09-16T08:33:17.123Z,61.88
2017-09-16T08:42:55.356Z,61.88
2017-09-16T08:46:41.428Z,61.88
2017-09-16T08:47:37.120Z,56.25
2017-09-16T09:01:22.568Z,56.25
2017-09-16T09:02:02.775Z,56.25
2017-09-16T09:03:02.748Z,56.25
2017-09-16T09:04:02.730Z,56.25
2017-09-16T09:05:02.723Z,56.25
2017-09-16T09:06:02.836Z,56.25
2017-09-16T09:07:03.890Z,45.00
2017-09-16T09:08:03.363Z,56.25
2017-09-16T09:09:02.661Z,56.25
2017-09-16T09:16:12.947Z,45.00
2017-09-16T09:16:29.674Z,56.25
2017-09-16T09:17:28.957Z,50.63
2017-09-16T09:23:47.088Z,56.25
2017-09-16T09:24:46.091Z,45.00
2017-09-16T09:25:46.081Z,56.25
2017-09-16T09:26:46.123Z,61.88
2017-09-16T09:27:46.049Z,84.38
2017-09-16T09:28:46.031Z,67.50
2017-09-16T09:29:46.155Z,61.88
2017-09-16T09:30:46.008Z,61.88
2017-09-16T09:31:45.995Z,67.50
2017-09-16T09:32:45.975Z,78.75
2017-09-16T09:33:45.989Z,106.88
2017-09-16T09:34:45.955Z,90.00
2017-09-16T09:35:46.161Z,90.00
2017-09-16T09:36:45.929Z,95.63
2017-09-16T09:37:45.916Z,118.13
2017-09-16T09:38:45.909Z,90.00
2017-09-16T09:39:45.895Z,84.38
2017-09-16T09:40:45.882Z,90.00
2017-09-16T09:41:46.157Z,73.13
2017-09-16T09:42:45.854Z,95.63
2017-09-16T09:43:45.841Z,84.38
2017-09-16T09:44:45.848Z,90.00
2017-09-16T09:45:45.828Z,78.75
2017-09-16T09:46:45.809Z,84.38
2017-09-16T09:47:45.824Z,101.25
2017-09-16T09:48:45.786Z,95.63
2017-09-16T09:49:45.772Z,95.63
2017-09-16T09:50:45.759Z,95.63
2017-09-16T09:51:46.051Z,101.25
2017-09-16T09:52:45.733Z,101.25
2017-09-16T09:53:45.721Z,101.25
2017-09-16T09:54:45.715Z,95.63
2017-09-16T09:55:45.701Z,84.38
2017-09-16T09:56:45.696Z,78.75
2017-09-16T09:57:45.710Z,84.38
2017-09-16T09:58:45.667Z,84.38
2017-09-16T09:59:45.657Z,95.63
2017-09-16T10:00:45.653Z,84.38
2017-09-16T10:01:45.629Z,90.00
2017-09-16T10:02:45.652Z,95.63
2017-09-16T10:03:45.610Z,118.13
2017-09-16T10:04:45.607Z,112.50
2017-09-16T10:05:45.587Z,90.00
2017-09-16T10:06:45.573Z,95.63
2017-09-16T10:07:45.601Z,90.00
2017-09-16T10:08:45.561Z,129.38
2017-09-16T10:09:45.536Z,90.00
2017-09-16T10:10:45.533Z,84.38
2017-09-16T10:11:45.527Z,78.75
2017-09-16T10:12:45.541Z,95.63
2017-09-16T10:13:45.490Z,78.75
2017-09-16T10:14:45.546Z,73.13
2017-09-16T10:15:45.471Z,73.13
2017-09-16T10:16:45.464Z,78.75
2017-09-16T10:17:45.805Z,90.00
2017-09-16T10:18:45.433Z,84.38
2017-09-16T10:19:45.424Z,112.50
2017-09-16T10:20:45.410Z,123.75
2017-09-16T10:21:45.403Z,101.25
2017-09-16T10:22:45.389Z,106.88
2017-09-16T10:23:45.740Z,95.63
2017-09-16T10:24:45.370Z,78.75
2017-09-16T10:25:45.360Z,61.88
2017-09-16T10:26:45.348Z,67.50
2017-09-16T10:27:45.339Z,61.88
2017-09-16T10:28:45.325Z,67.50
2017-09-16T10:29:45.521Z,50.63
2017-09-16T10:30:45.306Z,45.00
2017-09-16T10:31:45.291Z,50.63
2017-09-16T10:32:45.287Z,67.50
2017-09-16T10:33:45.268Z,61.88
2017-09-16T10:34:45.259Z,67.50
2017-09-16T10:35:45.280Z,78.75
2017-09-16T10:36:45.243Z,95.63
2017-09-16T10:37:45.225Z,101.25
2017-09-16T10:38:45.216Z,106.88
2017-09-16T10:39:45.517Z,101.25
2017-09-16T10:40:45.228Z,106.88
2017-09-16T10:41:45.181Z,112.50
2017-09-16T10:42:45.168Z,118.13
2017-09-16T10:43:45.158Z,118.13
2017-09-16T10:44:45.152Z,118.13
2017-09-16T10:45:45.165Z,135.00
2017-09-16T10:46:45.127Z,129.38
2017-09-16T10:47:45.267Z,106.88
2017-09-16T10:48:45.112Z,140.63
2017-09-16T10:49:45.094Z,118.13
2017-09-16T10:50:45.109Z,101.25
2017-09-16T10:51:45.086Z,95.63
2017-09-16T10:52:45.059Z,135.00
2017-09-16T10:53:45.525Z,140.63
2017-09-16T10:54:45.043Z,95.63
2017-09-16T10:55:45.345Z,90.00
2017-09-16T10:56:45.020Z,95.63
2017-09-16T10:57:45.002Z,129.38
2017-09-16T10:58:44.993Z,101.25
2017-09-16T10:59:44.999Z,118.13
2017-09-16T11:00:44.972Z,123.75
2017-09-16T11:01:45.184Z,129.38
2017-09-16T11:02:44.953Z,135.00
2017-09-16T11:03:44.949Z,129.38
2017-09-16T11:04:44.929Z,118.13
2017-09-16T11:05:44.940Z,151.88
2017-09-16T11:06:44.935Z,151.88
2017-09-16T11:07:44.949Z,135.00
2017-09-16T11:08:44.890Z,129.38
2017-09-16T11:09:44.884Z,129.38
2017-09-16T11:10:44.873Z,112.50
2017-09-16T11:11:44.857Z,84.38
2017-09-16T11:12:45.228Z,67.50
2017-09-16T11:13:44.838Z,61.88
2017-09-16T11:14:44.823Z,67.50
2017-09-16T11:15:44.818Z,67.50
2017-09-16T11:16:44.804Z,73.13
2017-09-16T11:17:44.793Z,90.00
2017-09-16T11:18:45.019Z,90.00
2017-09-16T11:19:44.776Z,90.00
2017-09-16T11:20:44.761Z,90.00
2017-09-16T11:21:44.752Z,90.00
2017-09-16T11:22:44.743Z,90.00
2017-09-16T11:23:44.746Z,95.63
2017-09-16T11:24:45.068Z,90.00
2017-09-16T11:25:44.741Z,90.00
2017-09-16T11:26:44.708Z,95.63
2017-09-16T11:27:44.686Z,78.75
2017-09-16T11:28:44.685Z,78.75
2017-09-16T11:29:44.668Z,67.50
2017-09-16T11:30:44.966Z,73.13
2017-09-16T11:31:44.649Z,84.38
2017-09-16T11:32:44.637Z,84.38
2017-09-16T11:33:44.632Z,106.88
2017-09-16T11:34:44.615Z,101.25
2017-09-16T11:35:44.613Z,101.25
2017-09-16T11:36:44.697Z,78.75
2017-09-16T11:37:44.595Z,78.75
2017-09-16T11:38:44.572Z,90.00
2017-09-16T11:39:44.574Z,95.63
2017-09-16T11:40:44.559Z,78.75
2017-09-16T11:41:44.976Z,50.63
2017-09-16T11:42:44.537Z,50.63
2017-09-16T11:43:44.519Z,50.63
2017-09-16T11:44:44.515Z,50.63
2017-09-16T11:45:44.502Z,50.63
2017-09-16T11:46:44.513Z,50.63
2017-09-16T11:47:44.681Z,56.25
2017-09-16T11:48:44.473Z,61.88
2017-09-16T11:49:44.461Z,56.25
2017-09-16T11:50:44.455Z,61.88
2017-09-16T11:51:44.438Z,67.50
2017-09-16T11:52:44.435Z,73.13
2017-09-16T11:53:44.846Z,84.38
2017-09-16T11:54:44.406Z,112.50
2017-09-16T11:55:44.401Z,135.00
2017-09-16T11:56:44.388Z,118.13
2017-09-16T11:57:44.380Z,112.50
2017-09-16T11:58:44.368Z,106.88
2017-09-16T11:59:44.707Z,112.50
2017-09-16T12:00:44.355Z,118.13
2017-09-16T12:01:44.344Z,135.00
2017-09-16T12:02:44.324Z,129.38
2017-09-16T12:03:44.322Z,123.75
2017-09-16T12:04:44.310Z,135.00
2017-09-16T12:05:44.766Z,129.38
2017-09-16T12:06:44.292Z,118.13
2017-09-16T12:07:44.278Z,129.38
2017-09-16T12:08:44.262Z,123.75
2017-09-16T12:09:44.257Z,123.75
2017-09-16T12:10:44.251Z,129.38
2017-09-16T12:11:44.631Z,146.25
2017-09-16T12:12:44.225Z,118.13
2017-09-16T12:13:44.228Z,118.13
2017-09-16T12:14:44.205Z,123.75
2017-09-16T12:15:44.197Z,123.75
2017-09-16T12:16:44.188Z,123.75
2017-09-16T12:17:44.210Z,118.13
2017-09-16T12:18:44.161Z,118.13
2017-09-16T12:19:44.157Z,123.75
2017-09-16T12:20:44.148Z,123.75
2017-09-16T12:21:44.376Z,84.38
2017-09-16T12:22:44.140Z,106.88
2017-09-16T12:23:44.120Z,73.13
2017-09-16T12:24:44.112Z,67.50
2017-09-16T12:25:44.104Z,78.75
2017-09-16T12:26:44.094Z,101.25
2017-09-16T12:27:44.431Z,118.13
2017-09-16T12:28:44.077Z,157.50
2017-09-16T12:29:44.068Z,168.75
2017-09-16T12:30:44.048Z,151.88
2017-09-16T12:31:44.050Z,129.38
2017-09-16T12:32:44.035Z,123.75
2017-09-16T12:33:44.046Z,129.38
2017-09-16T12:34:44.025Z,129.38
2017-09-16T12:35:44.000Z,112.50
2017-09-16T12:36:43.991Z,106.88
2017-09-16T12:37:44.000Z,118.13
2017-09-16T12:38:44.185Z,112.50
2017-09-16T12:39:43.963Z,118.13
2017-09-16T12:40:43.962Z,123.75
2017-09-16T12:41:43.952Z,118.13
2017-09-16T12:42:43.939Z,140.63
2017-09-16T12:43:43.928Z,196.88
2017-09-16T12:44:44.235Z,123.75
2017-09-16T12:45:43.916Z,123.75
2017-09-16T12:46:43.901Z,129.38
2017-09-16T12:47:43.911Z,129.38
2017-09-16T12:48:43.879Z,129.38
2017-09-16T12:49:43.875Z,129.38
2017-09-16T12:50:44.150Z,123.75
2017-09-16T12:51:43.850Z,106.88
2017-09-16T12:52:43.840Z,135.00
2017-09-16T12:53:43.830Z,135.00
2017-09-16T12:54:43.826Z,129.38
2017-09-16T12:55:43.818Z,135.00
2017-09-16T12:56:44.206Z,140.63
2017-09-16T12:57:43.791Z,129.38
2017-09-16T12:58:43.782Z,129.38
2017-09-16T12:59:43.776Z,129.38
2017-09-16T13:00:43.770Z,112.50
2017-09-16T13:01:43.755Z,90.00
2017-09-16T13:02:43.950Z,95.63
2017-09-16T13:03:43.738Z,135.00
2017-09-16T13:04:43.727Z,146.25
2017-09-16T13:05:43.718Z,157.50
2017-09-16T13:06:43.709Z,123.75
2017-09-16T13:07:43.701Z,95.63
2017-09-16T13:08:43.721Z,84.38
2017-09-16T13:09:43.688Z,123.75
2017-09-16T13:10:43.687Z,101.25
2017-09-16T13:11:43.673Z,95.63
2017-09-16T13:12:43.663Z,101.25
2017-09-16T13:13:43.728Z,106.88
2017-09-16T13:14:43.647Z,264.38
2017-09-16T13:15:43.631Z,140.63
2017-09-16T13:16:43.624Z,106.88
2017-09-16T13:17:43.615Z,95.63
2017-09-16T13:18:43.599Z,73.13
2017-09-16T13:19:43.975Z,61.88
2017-09-16T13:20:43.590Z,56.25
2017-09-16T13:21:43.571Z,56.25
2017-09-16T13:22:43.567Z,61.88
2017-09-16T13:23:43.554Z,67.50
2017-09-16T13:24:43.543Z,67.50
2017-09-16T13:25:43.580Z,73.13
2017-09-16T13:26:43.526Z,84.38
2017-09-16T13:27:43.524Z,106.88
2017-09-16T13:28:43.513Z,106.88
2017-09-16T13:29:43.880Z,129.38
2017-09-16T13:30:43.491Z,157.50
2017-09-16T13:31:43.486Z,174.38
2017-09-16T13:32:43.469Z,151.88
2017-09-16T13:33:43.459Z,213.75
2017-09-16T13:34:43.453Z,146.25
2017-09-16T13:35:43.468Z,123.75